Time;durP1;ratioP1;P1;durP2;ratioP2;P2;SDS_P1;SDS_P2;PMS_P1;PMS_P2;Temp;Humidity;BMP_temperature;BMP_pressure;BME280_temperature;BME280_humidity;BME280_pressure;Samples;Min_cycle;Max_cycle;Signal;HPM_P1;HPM_P2
2021/11/27 00:01:00;;;;;;;19.67;10.75;;;;;;;8.98;54.93;98944.22;3397063;29;20358;-69
2021/11/27 00:02:42;;;;;;;20.02;11.38;;;;;;;8.98;55.14;98930.94;3400420;29;20356;-69
2021/11/27 00:04:22;;;;;;;17.80;11.73;;;;;;;8.97;55.03;98929.31;3404537;29;20035;-70
2021/11/27 00:06:03;;;;;;;16.40;11.52;;;;;;;8.95;55.23;98932.16;3402125;29;20039;-70
2021/11/27 00:07:44;;;;;;;17.98;11.48;;;;;;;8.94;55.26;98935.84;3403481;29;20040;-72
2021/11/27 00:09:25;;;;;;;19.10;10.97;;;;;;;8.94;55.25;98946.47;3402821;29;20043;-71
2021/11/27 00:11:06;;;;;;;16.67;11.13;;;;;;;8.94;55.58;98940.34;3403287;29;20311;-72
2021/11/27 00:12:47;;;;;;;19.80;12.25;;;;;;;8.92;55.59;98937.88;3391840;29;20527;-68
2021/11/27 00:14:28;;;;;;;16.00;11.55;;;;;;;8.92;55.78;98953.00;3389842;29;20491;-69
2021/11/27 00:16:09;;;;;;;16.02;11.15;;;;;;;8.89;55.88;98948.09;3390373;29;20040;-69
2021/11/27 00:17:51;;;;;;;17.00;11.07;;;;;;;8.88;55.96;98946.47;3390584;29;20040;-71
2021/11/27 00:19:31;;;;;;;16.90;12.68;;;;;;;8.87;56.02;98944.84;3395624;29;20039;-69
2021/11/27 00:21:14;;;;;;;18.17;11.38;;;;;;;8.86;56.08;98938.69;3402507;29;20138;-70
2021/11/27 00:22:55;;;;;;;17.48;11.27;;;;;;;8.88;56.09;98935.81;3402381;29;20135;-70
2021/11/27 00:24:35;;;;;;;17.23;11.45;;;;;;;8.87;56.06;98936.84;3402276;29;20043;-70
2021/11/27 00:26:18;;;;;;;15.05;11.18;;;;;;;8.88;56.16;98938.47;3402388;29;20054;-70
2021/11/27 00:27:59;;;;;;;20.23;12.35;;;;;;;8.89;56.10;98937.47;3388553;29;20051;-70
2021/11/27 00:29:40;;;;;;;17.48;11.02;;;;;;;8.89;56.09;98932.97;3374731;29;20052;-69
2021/11/27 00:31:23;;;;;;;22.15;11.55;;;;;;;8.89;55.98;98937.47;3383021;29;20048;-70
2021/11/27 00:33:05;;;;;;;16.85;11.35;;;;;;;8.91;56.02;98935.44;3399320;29;20116;-70
2021/11/27 00:34:46;;;;;;;19.75;12.00;;;;;;;8.90;56.04;98928.47;3388364;29;20428;-69
2021/11/27 00:36:27;;;;;;;17.80;12.45;;;;;;;8.89;56.20;98934.81;3399181;29;20131;-70
2021/11/27 00:38:07;;;;;;;18.25;12.43;;;;;;;8.88;56.16;98920.72;3402148;29;20098;-70
2021/11/27 00:39:48;;;;;;;18.70;11.15;;;;;;;8.87;56.37;98923.56;3402779;29;20402;-70
2021/11/27 00:41:29;;;;;;;18.85;12.57;;;;;;;8.86;56.24;98916.63;3401576;29;20134;-70
2021/11/27 00:43:12;;;;;;;20.13;10.75;;;;;;;8.86;56.17;98922.75;3401662;29;20047;-70
2021/11/27 00:44:52;;;;;;;;;;;;;;;8.97;56.15;98918.69;3403562;29;20043;-70
2021/11/27 00:46:33;;;;;;;18.83;10.60;;;;;;;8.88;56.11;98903.94;3402668;29;20293;-69
2021/11/27 00:48:15;;;;;;;16.45;11.25;;;;;;;8.87;56.41;98907.63;3402167;29;20582;-69
2021/11/27 00:49:56;;;;;;;17.15;9.70;;;;;;;8.85;56.36;98904.34;3402964;29;20040;-71
2021/11/27 00:51:36;;;;;;;20.35;9.90;;;;;;;8.84;56.73;98911.50;3387890;29;20044;-69
2021/11/27 00:53:18;;;;;;;15.98;10.68;;;;;;;8.86;56.89;98906.00;3388338;29;20048;-70
2021/11/27 00:54:59;;;;;;;15.68;10.23;;;;;;;8.87;56.71;98904.97;3399801;29;20534;-70
2021/11/27 00:56:41;;;;;;;18.30;10.43;;;;;;;8.87;56.88;98905.78;3401986;29;20464;-73
2021/11/27 00:58:22;;;;;;;14.90;9.85;;;;;;;8.88;56.87;98903.94;3402014;29;20046;-70
2021/11/27 01:00:06;;;;;;;14.57;9.55;;;;;;;8.89;56.69;98900.28;3401903;29;20047;-72
2021/11/27 01:01:47;;;;;;;13.82;10.13;;;;;;;8.92;56.64;98899.88;3388089;29;20138;-69
2021/11/27 01:03:31;;;;;;;15.57;10.05;;;;;;;8.93;56.75;98894.38;3384672;29;20044;-69
2021/11/27 01:05:13;;;;;;;19.63;10.90;;;;;;;8.95;56.54;98884.31;3397995;29;20043;-69
2021/11/27 01:06:54;;;;;;;12.68;9.50;;;;;;;8.97;56.70;98885.97;3400880;29;20051;-69
2021/11/27 01:08:35;;;;;;;16.42;9.98;;;;;;;8.97;56.71;98897.41;3387267;29;20052;-68
2021/11/27 01:10:18;;;;;;;;;;;;;;;9.06;56.30;98893.56;3399444;29;20044;-68
2021/11/27 01:11:59;;;;;;;15.40;8.82;;;;;;;9.00;56.35;98893.53;3401952;29;20385;-68
2021/11/27 01:13:41;;;;;;;16.42;10.00;;;;;;;8.98;56.39;98891.06;3401488;29;20070;-68
2021/11/27 01:15:27;;;;;;;19.52;10.07;;;;;;;8.97;56.53;98883.31;3401842;29;20530;-69
2021/11/27 01:17:09;;;;;;;15.63;9.82;;;;;;;8.97;56.69;98894.75;3400057;29;20094;-69
2021/11/27 01:18:50;;;;;;;10.98;8.80;;;;;;;8.96;56.53;98901.09;3401524;29;20039;-69
2021/11/27 01:20:39;;;;;;;15.23;9.65;;;;;;;8.98;56.66;98901.69;3401548;29;20134;-68
2021/11/27 01:22:23;;;;;;;17.35;9.45;;;;;;;8.98;56.80;98898.22;3387228;29;20393;-69
2021/11/27 01:24:07;;;;;;;13.98;9.00;;;;;;;8.98;56.57;98898.22;3399291;29;20051;-70
2021/11/27 01:25:48;;;;;;;12.18;8.82;;;;;;;8.97;56.72;98897.41;3401802;29;20134;-72
2021/11/27 01:27:29;;;;;;;14.30;9.73;;;;;;;9.00;56.75;98888.22;3387923;29;20040;-71
2021/11/27 01:29:10;;;;;;;16.52;9.38;;;;;;;8.98;56.66;98888.41;3398782;29;20794;-70
2021/11/27 01:30:54;;;;;;;16.52;9.27;;;;;;;9.02;56.82;98905.59;3401309;29;20150;-71
2021/11/27 01:32:35;;;;;;;15.48;9.77;;;;;;;9.02;56.50;98900.28;3400225;29;20126;-70
2021/11/27 01:34:16;;;;;;;14.70;9.75;;;;;;;9.04;56.28;98903.56;3387352;29;20100;-70
2021/11/27 01:35:59;;;;;;;16.77;10.00;;;;;;;9.05;56.57;98899.88;3398891;29;20498;-70
2021/11/27 01:37:39;;;;;;;;;;;;;;;9.15;56.35;98910.91;3401312;29;20515;-70
2021/11/27 01:39:21;;;;;;;14.70;8.88;;;;;;;9.09;56.20;98919.72;3387086;29;19990;-70
2021/11/27 01:41:02;;;;;;;13.32;8.48;;;;;;;9.09;56.27;98917.06;3384929;29;20059;-71
2021/11/27 01:42:43;;;;;;;14.32;10.77;;;;;;;9.11;56.07;98922.16;3384425;29;20040;-70
2021/11/27 01:44:24;;;;;;;13.88;9.40;;;;;;;9.11;56.26;98908.88;3384566;29;20103;-70
2021/11/27 01:46:05;;;;;;;14.20;9.48;;;;;;;9.11;56.18;98908.88;3384395;29;20133;-69
2021/11/27 01:47:52;;;;;;;10.70;9.18;;;;;;;9.08;56.26;98904.78;3384381;29;20039;-69
2021/11/27 01:49:33;;;;;;;13.98;9.70;;;;;;;9.10;56.27;98912.56;3378183;29;20146;-70
2021/11/27 01:51:17;;;;;;;16.33;10.38;;;;;;;9.08;56.17;98910.09;3384237;29;20071;-70
2021/11/27 01:52:58;;;;;;;16.15;9.80;;;;;;;9.07;56.26;98905.81;3397817;29;20043;-70
2021/11/27 01:54:40;;;;;;;12.57;10.00;;;;;;;9.07;56.16;98897.84;3387069;29;20130;-70
2021/11/27 01:56:28;;;;;;;22.87;11.17;;;;;;;9.07;56.04;98891.72;3398276;29;20035;-70
2021/11/27 01:58:10;;;;;;;16.95;10.55;;;;;;;9.05;55.99;98899.88;3386440;29;20755;-71
2021/11/27 01:59:51;;;;;;;18.50;10.00;;;;;;;9.05;56.32;98893.75;3385038;29;20539;-70
2021/11/27 02:01:33;;;;;;;20.10;10.93;;;;;;;9.04;55.94;98892.94;3397822;29;20347;-70
2021/11/27 02:03:14;;;;;;;14.77;9.70;;;;;;;9.04;56.18;98903.56;3386440;29;20040;-70
2021/11/27 02:05:14;;;;;;;18.02;11.57;;;;;;;9.06;56.28;98909.50;3401099;29;20058;-69
2021/11/27 02:06:56;;;;;;;14.55;10.30;;;;;;;9.06;56.18;98906.84;3400219;29;20513;-69
2021/11/27 02:08:37;;;;;;;19.85;10.15;;;;;;;9.06;56.15;98900.69;3386797;29;20043;-69
2021/11/27 02:10:19;;;;;;;22.42;11.32;;;;;;;9.04;56.06;98908.88;3383544;29;20040;-69
2021/11/27 02:12:08;;;;;;;16.70;10.15;;;;;;;9.05;56.10;98907.84;3384585;29;20071;-67
2021/11/27 02:13:50;;;;;;;19.85;10.55;;;;;;;9.05;56.17;98893.75;3380544;29;20139;-69
2021/11/27 02:15:31;;;;;;;16.17;10.02;;;;;;;9.06;56.05;98896.22;3397895;29;20047;-70
2021/11/27 02:17:13;;;;;;;18.63;11.05;;;;;;;9.07;55.77;98895.19;3386556;29;20542;-70
2021/11/27 02:18:54;;;;;;;15.05;9.95;;;;;;;9.09;55.83;98895.78;3393850;29;20074;-68
2021/11/27 02:20:38;;;;;;;17.17;9.88;;;;;;;9.10;55.83;98899.28;3389395;29;20043;-69
2021/11/27 02:22:18;;;;;;;18.35;10.20;;;;;;;9.10;55.86;98894.75;3376000;29;20116;-70
2021/11/27 02:24:02;;;;;;;13.50;10.98;;;;;;;9.10;55.79;98900.06;3384517;29;20068;-69
2021/11/27 02:25:43;;;;;;;15.38;10.27;;;;;;;9.12;55.81;98905.19;3399699;29;20095;-70
2021/11/27 02:27:24;;;;;;;14.13;10.13;;;;;;;9.13;55.77;98896.19;3402640;29;20047;-71
2021/11/27 02:29:08;;;;;;;17.08;10.90;;;;;;;9.13;55.83;98901.50;3389005;29;20053;-71
2021/11/27 02:31:22;;;;;;;17.77;10.38;;;;;;;9.15;55.62;98900.28;3522421;27;20383;-72
2021/11/27 02:33:03;;;;;;;19.30;11.30;;;;;;;9.16;55.72;98896.63;3521584;28;20471;-72
2021/11/27 02:34:44;;;;;;;17.88;11.82;;;;;;;9.16;55.78;98893.97;3521138;28;20042;-72
2021/11/27 02:36:27;;;;;;;19.73;11.82;;;;;;;9.18;55.44;98905.19;3518573;28;20460;-72
2021/11/27 02:38:08;;;;;;;20.60;12.02;;;;;;;9.18;55.54;98899.06;3518330;28;20096;-73
2021/11/27 02:39:49;;;;;;;20.42;10.80;;;;;;;9.18;55.55;98899.88;3519121;28;20035;-69
2021/11/27 02:41:34;;;;;;;16.83;11.18;;;;;;;9.18;55.42;98907.84;3518472;28;20406;-70
2021/11/27 02:43:15;;;;;;;17.73;10.95;;;;;;;9.18;55.44;98904.38;3517703;28;20047;-70
2021/11/27 02:44:55;;;;;;;16.00;10.48;;;;;;;9.19;55.69;98916.66;3518499;28;20123;-71
2021/11/27 02:46:38;;;;;;;19.27;11.30;;;;;;;9.17;55.41;98903.56;3518696;28;20036;-72
2021/11/27 02:48:19;;;;;;;16.00;10.48;;;;;;;9.18;55.71;98907.84;3520735;28;20475;-69
2021/11/27 02:50:02;;;;;;;16.88;11.55;;;;;;;9.16;55.38;98898.44;3522156;28;20039;-69
2021/11/27 02:51:42;;;;;;;18.95;12.50;;;;;;;9.17;55.54;98897.44;3522269;28;20043;-70
2021/11/27 02:53:23;;;;;;;16.33;11.73;;;;;;;9.17;55.49;98898.25;3520925;28;20721;-70
2021/11/27 02:55:05;;;;;;;18.02;11.85;;;;;;;9.18;55.53;98893.75;3518205;28;20177;-69
2021/11/27 02:56:46;;;;;;;;;;;;;;;9.29;55.48;98897.63;3522115;28;20043;-70
2021/11/27 02:58:27;;;;;;;14.90;9.77;;;;;;;9.22;55.49;98888.84;3520147;28;19919;-71
2021/11/27 03:00:11;;;;;;;18.08;11.02;;;;;;;9.20;55.36;98886.38;3521287;28;20138;-69
2021/11/27 03:01:53;;;;;;;16.85;11.23;;;;;;;9.20;55.17;98890.88;3520383;28;20039;-69
2021/11/27 03:03:39;;;;;;;17.30;10.68;;;;;;;9.21;55.57;98885.34;3512150;28;20076;-70
2021/11/27 03:05:20;;;;;;;15.95;11.55;;;;;;;9.21;55.46;98882.69;3519700;28;20047;-70
2021/11/27 03:07:02;;;;;;;17.00;11.10;;;;;;;9.22;55.56;98883.53;3508789;28;20036;-71
2021/11/27 03:08:42;;;;;;;23.10;12.00;;;;;;;9.22;55.48;98884.34;3514984;28;20035;-70
2021/11/27 03:10:23;;;;;;;15.50;10.50;;;;;;;9.23;55.33;98885.97;3513577;28;20047;-72
2021/11/27 03:12:05;;;;;;;18.10;11.55;;;;;;;9.24;55.28;98892.09;3520076;28;20075;-70
2021/11/27 03:13:45;;;;;;;14.73;10.85;;;;;;;9.24;55.36;98887.63;3521682;28;20032;-69
2021/11/27 03:15:29;;;;;;;16.20;10.60;;;;;;;9.24;55.37;98892.94;3520774;28;20043;-70
2021/11/27 03:17:10;;;;;;;18.13;11.65;;;;;;;9.25;55.33;98889.25;3517492;28;20036;-70
2021/11/27 03:18:51;;;;;;;16.30;10.88;;;;;;;9.24;55.52;98894.75;3517866;28;20572;-70
2021/11/27 03:20:32;;;;;;;18.95;11.48;;;;;;;9.24;55.42;98892.09;3521082;28;20036;-71
2021/11/27 03:22:15;;;;;;;17.92;12.18;;;;;;;9.25;55.54;98899.06;3521117;28;20042;-69
2021/11/27 03:23:55;;;;;;;16.65;11.07;;;;;;;9.24;55.27;98892.94;3506571;28;20652;-71
2021/11/27 03:25:36;;;;;;;16.98;10.93;;;;;;;9.24;55.37;98895.59;3514788;28;20161;-72
2021/11/27 03:27:18;;;;;;;;;;;;;;;9.34;55.04;98887.19;3520834;28;20143;-69
2021/11/27 03:28:59;;;;;;;19.50;10.05;;;;;;;9.26;55.15;98885.53;3520483;28;19928;-70
2021/11/27 03:30:40;;;;;;;16.33;10.98;;;;;;;9.24;55.06;98881.47;3521284;28;20457;-71
2021/11/27 03:32:23;;;;;;;15.77;10.90;;;;;;;9.23;55.08;98879.84;3522083;28;20417;-71
2021/11/27 03:34:20;;;;;;;17.80;11.82;;;;;;;9.23;55.25;98877.19;3520723;28;20036;-72
2021/11/27 03:36:03;;;;;;;17.73;10.95;;;;;;;9.22;55.06;98875.56;3518433;28;20043;-71
2021/11/27 03:37:44;;;;;;;19.65;10.98;;;;;;;9.21;55.15;98876.56;3520891;28;20040;-72
2021/11/27 03:39:28;;;;;;;16.48;10.80;;;;;;;9.21;55.08;98871.25;3511126;28;20039;-71
2021/11/27 03:41:11;;;;;;;14.77;10.65;;;;;;;9.20;55.27;98875.75;3512811;28;20044;-70
2021/11/27 03:42:52;;;;;;;19.42;11.00;;;;;;;9.20;55.31;98875.75;3511492;28;20036;-73
2021/11/27 03:44:34;;;;;;;23.83;10.38;;;;;;;9.22;55.32;98872.91;3508559;28;20666;-71
2021/11/27 03:46:15;;;;;;;17.23;10.40;;;;;;;9.22;55.21;98873.72;3506023;28;20048;-70
2021/11/27 03:48:17;;;;;;;16.60;11.07;;;;;;;9.21;55.26;98871.25;3502843;28;20044;-70
2021/11/27 03:50:15;;;;;;;18.60;11.05;;;;;;;9.22;55.14;98886.19;3500692;28;20102;-69
2021/11/27 03:51:57;;;;;;;15.63;10.90;;;;;;;9.20;55.05;98883.72;3511407;28;20048;-70
2021/11/27 03:53:39;;;;;;;20.80;11.57;;;;;;;9.20;55.02;98875.75;3508748;28;20059;-70
2021/11/27 03:55:22;;;;;;;20.05;11.52;;;;;;;9.21;54.99;98884.53;3506948;28;20490;-70
2021/11/27 03:57:03;;;;;;;16.23;10.75;;;;;;;9.18;55.06;98878.59;3504473;28;20032;-71
2021/11/27 03:58:45;;;;;;;14.90;10.70;;;;;;;9.18;55.00;98878.59;3511131;28;20950;-71
2021/11/27 04:00:27;;;;;;;;;;;;;;;9.28;54.82;98872.88;3511358;28;20468;-71
2021/11/27 04:02:07;;;;;;;15.70;9.90;;;;;;;9.21;55.03;98882.69;3511166;28;19919;-71
2021/11/27 04:03:51;;;;;;;16.17;10.48;;;;;;;9.19;54.77;98876.78;3497602;28;20056;-72
2021/11/27 04:05:32;;;;;;;16.85;11.32;;;;;;;9.15;54.96;98873.69;3499127;28;20039;-69
2021/11/27 04:07:13;;;;;;;17.75;10.98;;;;;;;9.14;55.04;98872.06;3508151;28;20521;-71
2021/11/27 04:08:58;;;;;;;14.48;10.23;;;;;;;9.12;54.98;98879.44;3508599;28;20086;-71
2021/11/27 04:10:40;;;;;;;18.20;11.23;;;;;;;9.13;55.07;98880.25;3511125;28;20043;-72
2021/11/27 04:12:21;;;;;;;16.48;10.68;;;;;;;9.14;55.00;98887.22;3506796;28;20514;-71
2021/11/27 04:14:02;;;;;;;17.98;11.10;;;;;;;9.14;55.11;98884.56;3508010;28;20131;-71
2021/11/27 04:15:44;;;;;;;;;;;;;;;9.23;54.90;98885.16;3501186;28;20036;-70
2021/11/27 04:17:24;;;;;;;18.88;10.80;;;;;;;9.16;54.85;98885.16;3507355;28;19920;-70
2021/11/27 04:19:05;;;;;;;15.63;10.82;;;;;;;9.13;54.79;98881.06;3507502;28;20040;-70
2021/11/27 04:20:46;;;;;;;14.45;9.98;;;;;;;9.11;54.89;98888.44;3507913;28;20032;-70
2021/11/27 04:22:27;;;;;;;15.23;10.32;;;;;;;9.10;55.00;98886.78;3507738;28;20087;-71
2021/11/27 04:24:19;;;;;;;16.80;11.05;;;;;;;9.09;54.96;98887.81;3496033;28;20926;-72
2021/11/27 04:26:00;;;;;;;19.20;11.98;;;;;;;9.09;54.98;98876.38;3502027;28;20040;-72
2021/11/27 04:27:41;;;;;;;19.58;10.57;;;;;;;9.08;54.88;98872.88;3507134;28;20081;-72
2021/11/27 04:29:22;;;;;;;21.83;11.63;;;;;;;9.08;55.04;98877.38;3507436;28;20044;-71
2021/11/27 04:31:03;;;;;;;16.92;11.10;;;;;;;9.08;54.90;98883.50;3506984;28;20059;-69
2021/11/27 04:32:44;;;;;;;16.02;10.60;;;;;;;9.09;54.97;98885.16;3507415;28;20085;-71
2021/11/27 04:34:33;;;;;;;15.00;9.88;;;;;;;9.07;54.84;98873.09;3508063;28;20483;-70
2021/11/27 04:36:14;;;;;;;18.20;10.98;;;;;;;9.07;55.15;98881.88;3506941;28;20040;-68
2021/11/27 04:37:58;;;;;;;14.02;10.18;;;;;;;9.06;55.05;98880.25;3507598;28;20040;-69
2021/11/27 04:39:40;;;;;;;18.67;11.45;;;;;;;9.08;54.88;98888.00;3511025;28;20506;-70
2021/11/27 04:41:22;;;;;;;16.45;10.70;;;;;;;9.08;55.10;98883.50;3509339;28;20445;-69
2021/11/27 04:43:05;;;;;;;13.98;10.00;;;;;;;9.09;55.18;98885.16;3509904;28;20134;-71
2021/11/27 04:44:46;;;;;;;14.77;10.07;;;;;;;9.08;55.10;98888.81;3493377;28;20537;-69
2021/11/27 04:46:27;;;;;;;16.30;11.80;;;;;;;9.09;55.00;98889.66;3496665;28;20035;-69
2021/11/27 04:48:08;;;;;;;17.05;11.48;;;;;;;9.09;55.07;98893.13;3506493;28;20520;-70
2021/11/27 04:49:49;;;;;;;16.42;11.48;;;;;;;9.08;54.78;98888.00;3507024;28;20032;-71
2021/11/27 04:51:30;;;;;;;;;;;;;;;9.18;54.68;98891.88;3507485;28;20089;-69
2021/11/27 04:53:11;;;;;;;15.82;10.02;;;;;;;9.12;54.78;98894.56;3491875;28;19916;-69
2021/11/27 04:54:52;;;;;;;18.73;10.23;;;;;;;9.07;54.42;98884.53;3503666;28;20536;-70
2021/11/27 04:56:33;;;;;;;16.55;10.98;;;;;;;9.07;54.76;98879.22;3507127;28;20376;-70
2021/11/27 04:58:14;;;;;;;16.13;11.63;;;;;;;9.07;54.68;98889.03;3506496;28;20126;-69
2021/11/27 04:59:55;;;;;;;16.40;10.30;;;;;;;9.06;54.83;98880.25;3506729;28;20100;-69
2021/11/27 05:01:36;;;;;;;17.02;10.50;;;;;;;9.06;54.87;98884.72;3506077;28;20040;-70
2021/11/27 05:03:17;;;;;;;19.58;11.02;;;;;;;9.06;54.75;98885.56;3507697;28;20031;-69
2021/11/27 05:04:59;;;;;;;20.55;11.15;;;;;;;9.05;54.96;98891.09;3507549;28;20040;-70
2021/11/27 05:06:40;;;;;;;16.47;10.60;;;;;;;9.04;54.77;98887.63;3506515;28;20081;-70
2021/11/27 05:08:21;;;;;;;17.25;10.60;;;;;;;9.04;54.75;98882.31;3492968;28;20630;-71
2021/11/27 05:10:04;;;;;;;21.15;11.20;;;;;;;9.04;54.87;98884.16;3503863;28;20116;-67
2021/11/27 05:11:45;;;;;;;17.63;11.35;;;;;;;9.03;54.53;98885.97;3509309;28;20656;-71
2021/11/27 05:13:27;;;;;;;17.45;9.00;;;;;;;9.03;54.82;98899.25;3507278;28;20130;-71
2021/11/27 05:15:09;;;;;;;17.48;11.65;;;;;;;9.02;54.63;98881.69;3509562;28;20462;-70
2021/11/27 05:16:52;;;;;;;17.25;11.45;;;;;;;9.01;54.75;98880.06;3508100;28;20048;-70
2021/11/27 05:18:34;;;;;;;13.95;9.80;;;;;;;9.00;55.00;98888.22;3508014;28;20572;-70
2021/11/27 05:20:20;;;;;;;15.23;10.68;;;;;;;9.00;54.78;98886.38;3507846;28;22254;-70
2021/11/27 05:22:01;;;;;;;19.92;10.55;;;;;;;8.99;54.94;98895.38;3510515;28;20047;-70
2021/11/27 05:23:42;;;;;;;19.08;11.38;;;;;;;8.98;54.94;98893.72;3495368;28;20115;-70
2021/11/27 05:25:49;;;;;;;15.50;10.00;;;;;;;8.96;54.59;98879.84;3504343;28;20055;-70
2021/11/27 05:28:02;;;;;;;;;;;;;;;9.05;54.45;98883.91;3484607;28;20499;-69
2021/11/27 05:30:07;;;;;;;14.65;9.77;;;;;;;8.98;54.64;98888.41;3503957;28;19924;-70
2021/11/27 05:32:03;;;;;;;16.33;10.95;;;;;;;8.95;54.46;98880.84;3526090;27;20039;-69
2021/11/27 05:35:26;;;;;;;14.15;9.93;;;;;;;8.90;54.54;98880.66;3510254;28;20042;-70
2021/11/27 05:37:07;;;;;;;13.82;9.57;;;;;;;8.91;54.59;98884.97;3508685;28;20028;-72
2021/11/27 05:38:51;;;;;;;18.30;10.73;;;;;;;8.89;54.74;98890.47;3507107;28;20085;-69
2021/11/27 05:40:32;;;;;;;18.58;10.15;;;;;;;8.89;54.83;98889.66;3509060;28;20135;-69
2021/11/27 05:42:13;;;;;;;16.10;10.50;;;;;;;8.88;54.70;98883.53;3509653;28;20039;-71
2021/11/27 05:43:59;;;;;;;15.45;10.80;;;;;;;8.88;54.77;98885.34;3509597;28;20399;-71
2021/11/27 05:45:40;;;;;;;16.58;10.02;;;;;;;8.89;54.76;98887.00;3506056;28;20074;-71
2021/11/27 05:47:23;;;;;;;19.20;10.93;;;;;;;8.91;54.79;98890.28;3506303;28;20442;-70
2021/11/27 05:49:05;;;;;;;;;;;;;;;9.01;54.45;98892.50;3506722;28;20047;-68
2021/11/27 05:51:06;;;;;;;16.88;9.88;;;;;;;8.93;54.48;98890.88;3508899;28;19920;-70
2021/11/27 05:52:47;;;;;;;16.05;9.90;;;;;;;8.92;54.55;98881.25;3510320;28;20104;-69
2021/11/27 05:54:27;;;;;;;13.93;9.15;;;;;;;8.93;54.60;98882.88;3510306;28;20137;-70
2021/11/27 05:56:08;;;;;;;16.42;10.43;;;;;;;8.94;54.62;98888.00;3510536;28;20047;-70
2021/11/27 05:57:50;;;;;;;15.65;9.43;;;;;;;8.95;54.64;98883.50;3510892;28;20125;-71
2021/11/27 05:59:31;;;;;;;18.65;9.95;;;;;;;8.94;54.57;98887.19;3510778;28;20097;-70
2021/11/27 06:01:12;;;;;;;17.35;9.35;;;;;;;8.93;54.68;98889.03;3509928;28;20036;-70
2021/11/27 06:02:53;;;;;;;16.17;9.82;;;;;;;8.93;54.85;98880.22;3509730;28;20578;-70
2021/11/27 06:04:33;;;;;;;16.55;9.85;;;;;;;8.92;54.71;98876.75;3509773;28;20437;-70
2021/11/27 06:06:14;;;;;;;13.75;8.82;;;;;;;8.92;54.85;98874.09;3509249;28;20040;-70
2021/11/27 06:07:56;;;;;;;13.88;9.38;;;;;;;8.94;54.65;98876.56;3509491;28;20067;-69
2021/11/27 06:09:36;;;;;;;16.35;10.25;;;;;;;8.93;54.50;98882.88;3509714;28;20036;-70
2021/11/27 06:11:17;;;;;;;16.30;9.85;;;;;;;8.94;54.51;98887.19;3509207;28;20151;-72
2021/11/27 06:12:58;;;;;;;16.25;10.02;;;;;;;8.92;54.59;98875.94;3509703;28;20032;-70
2021/11/27 06:14:38;;;;;;;15.10;8.98;;;;;;;8.94;54.56;98871.25;3506792;28;20126;-70
2021/11/27 06:16:19;;;;;;;16.90;10.38;;;;;;;8.95;54.62;98863.06;3518116;28;20071;-69
2021/11/27 06:18:00;;;;;;;16.98;9.70;;;;;;;8.97;54.79;98862.88;3509443;28;20414;-69
2021/11/27 06:19:41;;;;;;;13.80;9.43;;;;;;;8.97;54.76;98875.34;3509784;28;20139;-71
2021/11/27 06:21:22;;;;;;;15.85;10.00;;;;;;;8.97;54.42;98865.53;3509907;28;20100;-72
2021/11/27 06:23:03;;;;;;;14.57;10.60;;;;;;;8.93;54.27;98845.69;3510774;28;20032;-71
2021/11/27 06:24:44;;;;;;;16.60;9.25;;;;;;;8.98;54.53;98863.69;3510779;28;20468;-70
2021/11/27 06:26:25;;;;;;;18.20;9.65;;;;;;;8.99;54.52;98871.47;3508876;28;20037;-71
2021/11/27 06:28:08;;;;;;;17.45;10.13;;;;;;;8.98;54.32;98869.81;3509311;28;20066;-69
2021/11/27 06:29:49;;;;;;;17.95;9.57;;;;;;;8.96;54.40;98858.59;3510326;28;20032;-70
2021/11/27 06:31:30;;;;;;;24.35;9.70;;;;;;;8.93;54.28;98854.50;3510049;28;20043;-70
2021/11/27 06:33:11;;;;;;;17.55;10.38;;;;;;;8.93;54.36;98853.66;3517003;28;20028;-74
2021/11/27 06:34:54;;;;;;;16.33;8.68;;;;;;;8.92;54.36;98862.66;3515736;28;20036;-73
2021/11/27 06:36:34;;;;;;;16.45;9.52;;;;;;;8.94;54.43;98860.63;3517977;28;20384;-73
2021/11/27 06:38:16;;;;;;;19.30;9.50;;;;;;;8.93;54.29;98862.47;3515921;28;20096;-72
2021/11/27 06:39:59;;;;;;;16.03;8.63;;;;;;;8.93;54.20;98864.28;3515931;28;20040;-73
2021/11/27 06:41:40;;;;;;;23.00;9.02;;;;;;;8.92;54.13;98863.47;3517996;28;20040;-73
2021/11/27 06:43:44;;;;;;;15.30;9.50;;;;;;;8.91;54.16;98883.13;3517030;28;20044;-73
2021/11/27 06:45:34;;;;;;;15.95;9.32;;;;;;;8.91;54.30;98867.16;3514196;28;20040;-73
2021/11/27 06:47:21;;;;;;;13.57;8.52;;;;;;;8.89;54.08;98857.75;3509403;28;20036;-72
2021/11/27 06:49:02;;;;;;;14.57;8.63;;;;;;;8.90;54.22;98860.19;3510781;28;20036;-72
2021/11/27 06:50:43;;;;;;;15.77;9.65;;;;;;;8.90;54.13;98851.41;3510169;28;20544;-71
2021/11/27 06:52:24;;;;;;;12.38;8.95;;;;;;;8.90;54.08;98846.91;3511731;28;20523;-72
2021/11/27 06:54:04;;;;;;;13.75;9.07;;;;;;;8.91;54.16;98845.91;3512336;28;20040;-72
2021/11/27 06:55:45;;;;;;;16.52;8.98;;;;;;;8.91;54.29;98845.09;3514002;28;20095;-74
2021/11/27 06:57:26;;;;;;;17.60;8.43;;;;;;;8.91;54.18;98851.22;3517581;28;20032;-72
2021/11/27 06:59:06;;;;;;;14.20;9.07;;;;;;;8.94;54.18;98834.06;3516125;28;20047;-73
2021/11/27 07:00:47;;;;;;;14.93;9.13;;;;;;;8.94;54.23;98834.88;3517295;28;20517;-72
2021/11/27 07:02:46;;;;;;;15.10;9.00;;;;;;;8.97;54.11;98827.50;3507275;28;20101;-71
2021/11/27 07:04:53;;;;;;;12.55;6.55;;;;;;;9.16;55.86;98845.28;3495097;28;20052;-71
2021/11/27 07:06:33;;;;;;;13.75;5.90;;;;;;;9.52;57.34;98846.66;3509284;28;20406;-70
2021/11/27 07:08:14;;;;;;;10.40;6.18;;;;;;;9.98;57.68;98858.97;3508108;28;20074;-70
2021/11/27 07:10:06;;;;;;;15.48;8.02;;;;;;;10.26;55.95;98845.34;3506751;28;20047;-72
2021/11/27 07:11:51;;;;;;;15.40;7.65;;;;;;;10.31;54.69;98832.22;3505151;28;20415;-71
2021/11/27 07:13:32;;;;;;;13.43;7.68;;;;;;;10.23;53.86;98835.13;3526084;28;20036;-73
2021/11/27 07:15:14;;;;;;;12.82;7.75;;;;;;;10.09;53.23;98846.84;3509766;28;20554;-73
2021/11/27 07:16:55;;;;;;;13.85;8.38;;;;;;;9.96;53.03;98832.56;3512055;28;20047;-74
2021/11/27 07:18:35;;;;;;;15.75;8.75;;;;;;;9.84;52.88;98839.59;3514019;28;20063;-73
2021/11/27 07:20:16;;;;;;;17.38;9.35;;;;;;;9.70;52.63;98841.47;3513200;28;20063;-71
2021/11/27 07:21:57;;;;;;;14.45;8.40;;;;;;;9.60;52.70;98860.56;3514009;28;20051;-72
2021/11/27 07:23:38;;;;;;;21.35;7.93;;;;;;;9.51;52.31;98839.69;3518100;28;20473;-71
2021/11/27 07:25:20;;;;;;;14.20;8.80;;;;;;;9.39;52.22;98832.34;3513637;28;20051;-73
2021/11/27 07:27:27;;;;;;;12.25;8.07;;;;;;;9.32;52.14;98841.34;3517642;28;20040;-74
2021/11/27 07:29:08;;;;;;;10.45;7.43;;;;;;;9.23;52.20;98831.97;3516586;28;20036;-72
2021/11/27 07:30:56;;;;;;;14.35;8.82;;;;;;;9.14;52.30;98828.72;3514711;28;20052;-73
2021/11/27 07:32:37;;;;;;;12.57;8.43;;;;;;;9.08;52.06;98825.03;3515258;28;20043;-74
2021/11/27 07:34:18;;;;;;;17.27;9.02;;;;;;;9.03;52.08;98832.81;3515212;28;20036;-73
2021/11/27 07:35:59;;;;;;;15.02;7.63;;;;;;;8.99;52.21;98810.34;3518116;28;20039;-74
2021/11/27 07:37:39;;;;;;;16.55;8.75;;;;;;;8.95;52.10;98819.72;3515908;28;20039;-74
2021/11/27 07:39:21;;;;;;;12.65;8.82;;;;;;;8.91;52.16;98823.84;3514206;28;20044;-74
2021/11/27 07:41:03;;;;;;;12.27;8.10;;;;;;;8.86;51.92;98805.03;3514735;28;20201;-74
2021/11/27 07:42:45;;;;;;;14.52;8.68;;;;;;;8.83;52.01;98813.38;3508177;28;20444;-73
2021/11/27 07:44:56;;;;;;;15.45;9.45;;;;;;;8.78;51.83;98822.00;3503472;28;20043;-71
2021/11/27 07:47:06;;;;;;;18.52;8.77;;;;;;;8.72;51.87;98789.09;3494810;28;20053;-73
2021/11/27 07:49:05;;;;;;;19.10;9.02;;;;;;;8.68;51.84;98795.84;3512770;28;20198;-71
2021/11/27 07:51:18;;;;;;;15.93;8.38;;;;;;;8.68;51.70;98792.38;3512459;28;20052;-73
2021/11/27 07:53:05;;;;;;;15.68;8.48;;;;;;;8.64;51.79;98791.94;3508490;28;20043;-73
2021/11/27 07:54:46;;;;;;;20.20;9.00;;;;;;;8.58;51.78;98787.47;3512710;28;20410;-73
2021/11/27 07:56:27;;;;;;;16.73;8.63;;;;;;;8.52;51.60;98789.09;3516639;28;20035;-72
2021/11/27 07:58:07;;;;;;;15.32;9.05;;;;;;;8.49;51.80;98807.25;3518268;28;20135;-73
2021/11/27 07:59:48;;;;;;;15.18;8.88;;;;;;;8.45;51.72;98787.44;3511447;28;20047;-74
2021/11/27 08:01:30;;;;;;;15.35;9.40;;;;;;;8.41;51.55;98786.22;3511064;28;20036;-72
2021/11/27 08:03:11;;;;;;;17.88;9.43;;;;;;;8.36;51.62;98793.94;3512792;28;20028;-71
2021/11/27 08:04:52;;;;;;;16.13;9.90;;;;;;;8.29;51.75;98778.81;3514029;28;20060;-71
2021/11/27 08:06:33;;;;;;;16.50;9.68;;;;;;;8.24;51.68;98775.97;3515692;28;20055;-74